Time;durP1;ratioP1;P1;durP2;ratioP2;P2;SDS_P1;SDS_P2;PMS_P1;PMS_P2;Temp;Humidity;BMP_temperature;BMP_pressure;BME280_temperature;BME280_humidity;BME280_pressure;Samples;Min_cycle;Max_cycle;Signal;HPM_P1;HPM_P2
2022/11/09 00:00:46;;;;;;;2.92;1.70;;;;;;;;;;5073014;28;20107;-81
2022/11/09 00:03:12;;;;;;;3.15;1.70;;;;;;;;;;5053953;28;20456;-80
2022/11/09 00:05:37;;;;;;;4.43;1.83;;;;;;;;;;5037582;28;20471;-81
2022/11/09 00:08:09;;;;;;;2.40;1.42;;;;;;;;;;5076731;28;20033;-80
2022/11/09 00:10:35;;;;;;;4.00;1.70;;;;;;;;;;5058165;28;20056;-81
2022/11/09 00:13:01;;;;;;;3.30;1.77;;;;;;;;;;5041777;28;20482;-80
2022/11/09 00:15:26;;;;;;;3.65;1.70;;;;;;;;;;5058700;28;20367;-81
2022/11/09 00:17:51;;;;;;;4.18;1.92;;;;;;;;;;5076295;28;20032;-80
2022/11/09 00:20:17;;;;;;;5.07;1.85;;;;;;;;;;5076108;28;20037;-79
2022/11/09 00:22:46;;;;;;;2.85;1.70;;;;;;;;;;5041734;28;20024;-81
2022/11/09 00:25:11;;;;;;;5.43;1.60;;;;;;;;;;5041372;28;20518;-81
2022/11/09 00:27:37;;;;;;;3.92;1.70;;;;;;;;;;5041218;28;20056;-80
2022/11/09 00:30:03;;;;;;;4.97;2.03;;;;;;;;;;5041414;28;20047;-80
2022/11/09 00:32:28;;;;;;;4.15;1.60;;;;;;;;;;5041502;28;20056;-80
2022/11/09 00:34:53;;;;;;;6.10;1.60;;;;;;;;;;5042121;28;20103;-81
2022/11/09 00:37:19;;;;;;;3.53;1.85;;;;;;;;;;5058046;28;20042;-79
2022/11/09 00:39:44;;;;;;;2.63;1.40;;;;;;;;;;5076595;28;20112;-82
2022/11/09 00:42:09;;;;;;;6.00;1.63;;;;;;;;;;5057765;28;20052;-80
2022/11/09 00:44:34;;;;;;;4.50;2.03;;;;;;;;;;5058759;28;20403;-80
2022/11/09 00:47:00;;;;;;;3.03;1.42;;;;;;;;;;5074515;28;20052;-81
2022/11/09 00:49:25;;;;;;;3.63;1.80;;;;;;;;;;5076073;28;20107;-81
2022/11/09 00:51:51;;;;;;;3.38;1.70;;;;;;;;;;5058111;28;20036;-80
2022/11/09 00:54:17;;;;;;;5.10;1.70;;;;;;;;;;5057731;28;20103;-80
2022/11/09 00:56:42;;;;;;;6.15;1.55;;;;;;;;;;5075956;28;20029;-80
2022/11/09 00:59:09;;;;;;;4.57;1.42;;;;;;;;;;5041262;28;20073;-80
2022/11/09 01:01:34;;;;;;;4.82;1.70;;;;;;;;;;5074040;28;20044;-81
2022/11/09 01:04:00;;;;;;;4.72;1.60;;;;;;;;;;5040624;28;20027;-80
2022/11/09 01:06:25;;;;;;;24.77;2.25;;;;;;;;;;5075497;28;20029;-81
2022/11/09 01:08:50;;;;;;;3.47;1.45;;;;;;;;;;5041107;28;20033;-82
2022/11/09 01:11:18;;;;;;;2.78;1.60;;;;;;;;;;5057048;28;20035;-81
2022/11/09 01:13:44;;;;;;;7.32;1.70;;;;;;;;;;5057311;28;20024;-81
2022/11/09 01:16:13;;;;;;;3.05;1.65;;;;;;;;;;5073828;28;20028;-80
2022/11/09 01:18:39;;;;;;;4.60;1.70;;;;;;;;;;5056534;28;20029;-81
2022/11/09 01:21:06;;;;;;;3.00;1.60;;;;;;;;;;5057219;28;20105;-81
2022/11/09 01:23:32;;;;;;;4.15;1.90;;;;;;;;;;5057254;28;20074;-81
2022/11/09 01:26:05;;;;;;;2.75;1.52;;;;;;;;;;5056491;28;20029;-81
2022/11/09 01:28:30;;;;;;;4.15;1.83;;;;;;;;;;5073930;28;20124;-80
2022/11/09 01:31:01;;;;;;;2.85;1.63;;;;;;;;;;5056933;28;20429;-81
2022/11/09 01:33:26;;;;;;;3.42;1.45;;;;;;;;;;5056939;28;20025;-81
2022/11/09 01:35:51;;;;;;;2.40;1.52;;;;;;;;;;5056992;28;20131;-81
2022/11/09 01:38:17;;;;;;;4.53;1.70;;;;;;;;;;5039953;28;20029;-81
2022/11/09 01:40:42;;;;;;;3.65;1.70;;;;;;;;;;5057059;28;20036;-81
2022/11/09 01:43:15;;;;;;;2.03;1.25;;;;;;;;;;5039985;28;20086;-81
2022/11/09 01:45:42;;;;;;;3.42;1.52;;;;;;;;;;5073367;28;20501;-81
2022/11/09 01:48:12;;;;;;;3.40;1.60;;;;;;;;;;5056746;28;20563;-81
2022/11/09 01:50:52;;;;;;;4.28;1.40;;;;;;;;;;5057320;28;20031;-81
2022/11/09 01:53:21;;;;;;;4.57;1.60;;;;;;;;;;5056261;28;20024;-81
2022/11/09 01:55:48;;;;;;;3.50;1.75;;;;;;;;;;5040146;28;20031;-81
2022/11/09 01:58:36;;;;;;;3.75;1.70;;;;;;;;;;5056826;28;20024;-81
2022/11/09 02:01:02;;;;;;;4.65;1.85;;;;;;;;;;5056582;28;20029;-81
2022/11/09 02:03:35;;;;;;;3.80;1.50;;;;;;;;;;5056013;28;20418;-81
2022/11/09 02:06:03;;;;;;;3.60;1.83;;;;;;;;;;5056091;28;20111;-81
2022/11/09 02:08:29;;;;;;;3.10;1.63;;;;;;;;;;5056333;28;20024;-81
2022/11/09 02:11:08;;;;;;;2.70;1.52;;;;;;;;;;5056196;28;20042;-81
2022/11/09 02:13:34;;;;;;;4.30;1.77;;;;;;;;;;5091140;28;20443;-80
2022/11/09 02:16:00;;;;;;;3.92;1.35;;;;;;;;;;5056346;28;20040;-80
2022/11/09 02:18:26;;;;;;;4.22;1.75;;;;;;;;;;5074347;28;20035;-81
2022/11/09 02:20:54;;;;;;;4.05;1.30;;;;;;;;;;5056078;28;20029;-81
2022/11/09 02:23:20;;;;;;;3.33;1.70;;;;;;;;;;5056643;28;20547;-81
2022/11/09 02:25:50;;;;;;;4.55;1.60;;;;;;;;;;5074177;28;20032;-81
2022/11/09 02:28:16;;;;;;;6.25;1.60;;;;;;;;;;5056179;28;20040;-80
2022/11/09 02:30:43;;;;;;;3.55;1.52;;;;;;;;;;5021716;28;20032;-80
2022/11/09 02:33:08;;;;;;;3.25;1.65;;;;;;;;;;5055589;28;20029;-81
2022/11/09 02:35:34;;;;;;;4.38;1.50;;;;;;;;;;5055896;28;20102;-81
2022/11/09 02:37:59;;;;;;;4.72;2.00;;;;;;;;;;5038927;28;20029;-81
2022/11/09 02:40:32;;;;;;;4.85;1.55;;;;;;;;;;5073997;28;20024;-81
2022/11/09 02:42:59;;;;;;;2.65;1.52;;;;;;;;;;5072217;28;20033;-81
2022/11/09 02:45:25;;;;;;;4.55;1.70;;;;;;;;;;5055673;28;20039;-80
2022/11/09 02:47:50;;;;;;;7.35;1.50;;;;;;;;;;5055579;28;20028;-81
2022/11/09 02:50:15;;;;;;;3.08;1.63;;;;;;;;;;5038895;28;20029;-80
2022/11/09 02:52:41;;;;;;;2.70;1.58;;;;;;;;;;5071660;28;20035;-81
2022/11/09 02:55:07;;;;;;;3.95;1.40;;;;;;;;;;5073009;28;20121;-81
2022/11/09 02:57:32;;;;;;;3.22;1.50;;;;;;;;;;5073233;28;20475;-80
2022/11/09 02:59:57;;;;;;;5.05;1.70;;;;;;;;;;5088881;28;20024;-81
2022/11/09 03:02:23;;;;;;;3.30;1.52;;;;;;;;;;5055219;28;20474;-81
2022/11/09 03:04:48;;;;;;;2.33;1.20;;;;;;;;;;5073196;28;20033;-81
2022/11/09 03:07:13;;;;;;;3.28;1.20;;;;;;;;;;5088540;28;20123;-81
2022/11/09 03:09:39;;;;;;;4.25;1.60;;;;;;;;;;5088769;28;20044;-81
2022/11/09 03:12:27;;;;;;;2.92;1.55;;;;;;;;;;5055399;28;20128;-80
2022/11/09 03:14:50;;;;;;;4.93;1.52;;;;;;;;;;5066869;28;20391;-81
2022/11/09 03:17:16;;;;;;;2.65;1.30;;;;;;;;;;5038472;28;20032;-80
2022/11/09 03:19:42;;;;;;;3.83;1.70;;;;;;;;;;5055655;28;20020;-81
2022/11/09 03:22:07;;;;;;;3.95;1.40;;;;;;;;;;5055160;28;20039;-81
2022/11/09 03:24:33;;;;;;;3.47;1.40;;;;;;;;;;5073470;28;20031;-81
2022/11/09 03:26:58;;;;;;;2.22;1.35;;;;;;;;;;5088422;28;20036;-79
2022/11/09 03:29:23;;;;;;;2.38;1.38;;;;;;;;;;5073554;28;20040;-81
2022/11/09 03:31:49;;;;;;;3.70;1.30;;;;;;;;;;5072632;28;20024;-81
2022/11/09 03:34:14;;;;;;;4.63;1.65;;;;;;;;;;5054926;28;20443;-80
2022/11/09 03:36:39;;;;;;;4.05;1.67;;;;;;;;;;5021535;28;20082;-80
2022/11/09 03:39:05;;;;;;;4.88;1.60;;;;;;;;;;5072090;28;20115;-80
2022/11/09 03:41:30;;;;;;;3.78;1.70;;;;;;;;;;5037621;28;20043;-80
2022/11/09 03:43:55;;;;;;;4.00;1.40;;;;;;;;;;5070688;28;20031;-81
2022/11/09 03:46:21;;;;;;;4.35;1.50;;;;;;;;;;5055016;28;20454;-81
2022/11/09 03:48:46;;;;;;;4.13;1.85;;;;;;;;;;5054556;28;20040;-80
2022/11/09 03:51:11;;;;;;;2.88;1.30;;;;;;;;;;5073208;28;20027;-80
2022/11/09 03:53:37;;;;;;;3.67;1.38;;;;;;;;;;5037788;28;20083;-80
2022/11/09 03:56:02;;;;;;;3.17;1.30;;;;;;;;;;5072789;28;20024;-81
2022/11/09 03:58:28;;;;;;;4.03;1.50;;;;;;;;;;5054666;28;20166;-80
2022/11/09 04:00:53;;;;;;;3.38;1.25;;;;;;;;;;5071098;28;20064;-80
2022/11/09 04:03:18;;;;;;;3.45;1.40;;;;;;;;;;5072397;28;20063;-80
2022/11/09 04:05:44;;;;;;;3.00;1.50;;;;;;;;;;5054065;28;20475;-80
2022/11/09 04:08:09;;;;;;;3.60;1.35;;;;;;;;;;5088154;28;20372;-80
2022/11/09 04:10:34;;;;;;;4.32;1.52;;;;;;;;;;5037538;28;20394;-80
2022/11/09 04:13:00;;;;;;;5.82;1.60;;;;;;;;;;5072800;28;20035;-80
2022/11/09 04:15:25;;;;;;;3.20;1.45;;;;;;;;;;5054623;28;20056;-81
2022/11/09 04:17:57;;;;;;;4.05;1.63;;;;;;;;;;5071719;28;20455;-80
2022/11/09 04:20:23;;;;;;;2.53;1.38;;;;;;;;;;5021807;28;20119;-81
2022/11/09 04:22:59;;;;;;;5.07;1.60;;;;;;;;;;5054453;28;20032;-80
2022/11/09 04:25:25;;;;;;;5.50;1.60;;;;;;;;;;5055193;28;20028;-80
2022/11/09 04:27:55;;;;;;;6.40;1.48;;;;;;;;;;5037982;28;20032;-80
2022/11/09 04:30:20;;;;;;;5.22;1.55;;;;;;;;;;5054850;28;20059;-80
2022/11/09 04:32:45;;;;;;;2.72;1.50;;;;;;;;;;5072082;28;20056;-80
2022/11/09 04:35:11;;;;;;;4.55;1.40;;;;;;;;;;5072592;28;20032;-80
2022/11/09 04:37:36;;;;;;;5.10;1.50;;;;;;;;;;5087531;28;20036;-80
2022/11/09 04:40:01;;;;;;;4.22;1.70;;;;;;;;;;5037573;28;20040;-80
2022/11/09 04:42:27;;;;;;;4.95;1.73;;;;;;;;;;5072240;28;20024;-80
2022/11/09 04:44:52;;;;;;;3.22;1.50;;;;;;;;;;5087726;28;20037;-80
2022/11/09 04:47:17;;;;;;;2.75;1.55;;;;;;;;;;5071941;28;20139;-80
2022/11/09 04:49:43;;;;;;;6.72;1.77;;;;;;;;;;5072033;28;20040;-79
2022/11/09 04:52:08;;;;;;;3.60;1.45;;;;;;;;;;5020867;28;20036;-80
2022/11/09 04:54:34;;;;;;;3.85;1.80;;;;;;;;;;5057587;28;20036;-81
2022/11/09 04:56:59;;;;;;;10.02;2.00;;;;;;;;;;5091186;28;20479;-80
2022/11/09 04:59:24;;;;;;;7.28;1.70;;;;;;;;;;5040633;28;20055;-81
2022/11/09 05:01:50;;;;;;;2.97;1.40;;;;;;;;;;5057969;28;20402;-80
2022/11/09 05:04:15;;;;;;;2.80;1.17;;;;;;;;;;5025046;28;20031;-81
2022/11/09 05:06:41;;;;;;;4.75;1.42;;;;;;;;;;5076166;28;20407;-81
2022/11/09 05:09:06;;;;;;;5.07;1.48;;;;;;;;;;5076341;28;20112;-81
2022/11/09 05:11:33;;;;;;;3.42;1.35;;;;;;;;;;5076384;28;20386;-80
2022/11/09 05:13:59;;;;;;;7.00;1.33;;;;;;;;;;5058829;28;20020;-79
2022/11/09 05:16:24;;;;;;;4.85;1.92;;;;;;;;;;5074654;28;20036;-81
2022/11/09 05:18:50;;;;;;;3.97;1.42;;;;;;;;;;5058351;28;20025;-81
2022/11/09 05:21:16;;;;;;;5.13;1.48;;;;;;;;;;5058297;28;20033;-81
2022/11/09 05:23:59;;;;;;;3.58;1.25;;;;;;;;;;5076555;28;20025;-81
2022/11/09 05:26:40;;;;;;;6.85;1.45;;;;;;;;;;5076047;28;20040;-81
2022/11/09 05:29:10;;;;;;;3.25;1.30;;;;;;;;;;5058131;28;20036;-81
2022/11/09 05:31:36;;;;;;;4.38;1.70;;;;;;;;;;5057738;28;20032;-81
2022/11/09 05:34:03;;;;;;;4.30;1.50;;;;;;;;;;5075555;28;20029;-82
2022/11/09 05:36:29;;;;;;;5.45;1.50;;;;;;;;;;5074435;28;20063;-79
2022/11/09 05:38:55;;;;;;;6.25;1.88;;;;;;;;;;5041172;28;20032;-81
2022/11/09 05:41:20;;;;;;;11.43;2.20;;;;;;;;;;5057641;28;20051;-80
2022/11/09 05:43:46;;;;;;;11.07;2.55;;;;;;;;;;5090975;28;20119;-80
2022/11/09 05:46:15;;;;;;;13.13;2.92;;;;;;;;;;5075558;28;20410;-81
2022/11/09 05:48:41;;;;;;;28.50;3.80;;;;;;;;;;5057756;28;20468;-80
2022/11/09 05:51:08;;;;;;;15.57;3.83;;;;;;;;;;5074678;28;20044;-80
2022/11/09 05:53:34;;;;;;;10.82;3.05;;;;;;;;;;5057409;28;20021;-80
2022/11/09 05:56:07;;;;;;;19.75;3.38;;;;;;;;;;5057484;28;20029;-81
2022/11/09 05:58:36;;;;;;;;;;;;;;;;;;5058355;28;20467;-79
2022/11/09 06:01:04;;;;;;;11.02;2.75;;;;;;;;;;5057992;28;20315;-81
2022/11/09 06:03:30;;;;;;;12.05;2.95;;;;;;;;;;5057586;28;20053;-81
2022/11/09 06:05:59;;;;;;;21.48;3.10;;;;;;;;;;5057368;28;20101;-79
2022/11/09 06:08:25;;;;;;;14.02;2.75;;;;;;;;;;5075425;28;20031;-79
2022/11/09 06:10:50;;;;;;;11.63;2.72;;;;;;;;;;5056977;28;20036;-79
2022/11/09 06:13:15;;;;;;;12.07;3.05;;;;;;;;;;5075427;28;20039;-79
2022/11/09 06:15:41;;;;;;;7.53;2.60;;;;;;;;;;5057601;28;20056;-79
2022/11/09 06:18:06;;;;;;;8.20;2.47;;;;;;;;;;5057163;28;20024;-79
2022/11/09 06:20:32;;;;;;;10.20;2.28;;;;;;;;;;5074688;28;20111;-79
2022/11/09 06:22:59;;;;;;;13.35;2.50;;;;;;;;;;5090525;28;20040;-77
2022/11/09 06:25:25;;;;;;;10.13;2.70;;;;;;;;;;5057918;28;20024;-77
2022/11/09 06:27:53;;;;;;;8.38;2.00;;;;;;;;;;5058523;28;20036;-77
2022/11/09 06:30:19;;;;;;;11.07;2.47;;;;;;;;;;5058493;28;20028;-78
2022/11/09 06:32:44;;;;;;;13.38;2.28;;;;;;;;;;5025562;28;20040;-78
2022/11/09 06:35:09;;;;;;;6.65;2.17;;;;;;;;;;5076254;28;20028;-77
2022/11/09 06:37:35;;;;;;;5.20;1.98;;;;;;;;;;5058007;28;20039;-78
2022/11/09 06:40:00;;;;;;;8.70;1.95;;;;;;;;;;5089810;28;20449;-78
2022/11/09 06:42:25;;;;;;;4.82;1.90;;;;;;;;;;5056294;28;20521;-78
2022/11/09 06:44:51;;;;;;;9.60;2.72;;;;;;;;;;5056780;28;20111;-78
2022/11/09 06:47:16;;;;;;;5.45;1.73;;;;;;;;;;5056528;28;20027;-78
2022/11/09 06:49:42;;;;;;;8.25;1.80;;;;;;;;;;5089542;28;20032;-78
2022/11/09 06:52:07;;;;;;;4.32;1.80;;;;;;;;;;5040569;28;20028;-78
2022/11/09 06:54:33;;;;;;;4.70;1.80;;;;;;;;;;5039479;28;20028;-78
2022/11/09 06:56:59;;;;;;;8.50;1.90;;;;;;;;;;5039994;28;20028;-77
2022/11/09 06:59:24;;;;;;;6.93;1.85;;;;;;;;;;5089498;28;20111;-78
2022/11/09 07:01:49;;;;;;;7.05;1.88;;;;;;;;;;5056165;28;20394;-78
2022/11/09 07:04:15;;;;;;;9.05;2.35;;;;;;;;;;5055911;28;20036;-78
2022/11/09 07:06:40;;;;;;;3.65;1.48;;;;;;;;;;5089906;28;20028;-78
2022/11/09 07:09:07;;;;;;;6.65;2.08;;;;;;;;;;5056524;28;20062;-78
2022/11/09 07:11:32;;;;;;;7.28;2.08;;;;;;;;;;5055835;28;20048;-77
2022/11/09 07:13:58;;;;;;;5.28;1.80;;;;;;;;;;5073933;28;20427;-78
2022/11/09 07:16:24;;;;;;;5.05;1.90;;;;;;;;;;5088799;28;20394;-78
2022/11/09 07:18:49;;;;;;;3.67;1.40;;;;;;;;;;5073675;28;20028;-77
2022/11/09 07:21:14;;;;;;;6.78;1.60;;;;;;;;;;5089206;28;20443;-78
2022/11/09 07:23:40;;;;;;;4.65;1.90;;;;;;;;;;5073873;28;20028;-78
2022/11/09 07:26:06;;;;;;;4.75;1.70;;;;;;;;;;5072368;28;20048;-78
2022/11/09 07:28:31;;;;;;;5.30;1.50;;;;;;;;;;5056262;28;20471;-78
2022/11/09 07:30:57;;;;;;;8.05;1.67;;;;;;;;;;5055783;28;20074;-78
2022/11/09 07:33:23;;;;;;;7.85;1.80;;;;;;;;;;5055384;28;20028;-78
2022/11/09 07:35:49;;;;;;;5.68;1.75;;;;;;;;;;5056199;28;20464;-78
2022/11/09 07:38:15;;;;;;;6.53;1.70;;;;;;;;;;5055312;28;20119;-77
2022/11/09 07:40:41;;;;;;;6.25;1.92;;;;;;;;;;5073716;28;20061;-78
2022/11/09 07:43:07;;;;;;;4.30;1.63;;;;;;;;;;5022529;28;20025;-78
2022/11/09 07:45:33;;;;;;;4.68;1.52;;;;;;;;;;5056079;28;20479;-78
2022/11/09 07:48:01;;;;;;;4.97;2.08;;;;;;;;;;5055839;28;20029;-78
2022/11/09 07:50:28;;;;;;;5.63;1.70;;;;;;;;;;5055650;28;20025;-78
2022/11/09 07:52:55;;;;;;;7.00;1.83;;;;;;;;;;5056264;28;20395;-78
2022/11/09 07:55:20;;;;;;;7.35;1.77;;;;;;;;;;5055429;28;20078;-78
2022/11/09 07:57:46;;;;;;;7.65;1.60;;;;;;;;;;5073650;28;20422;-78
2022/11/09 08:00:11;;;;;;;8.20;1.95;;;;;;;;;;5038664;28;20033;-78
2022/11/09 08:02:37;;;;;;;5.90;1.67;;;;;;;;;;5055359;28;20052;-78
2022/11/09 08:05:03;;;;;;;7.10;1.58;;;;;;;;;;5073483;28;20449;-78
2022/11/09 08:07:28;;;;;;;5.70;1.73;;;;;;;;;;5055133;28;20086;-78
2022/11/09 08:09:53;;;;;;;4.88;1.90;;;;;;;;;;5055437;28;20029;-78
2022/11/09 08:12:19;;;;;;;4.80;1.60;;;;;;;;;;5054851;28;20071;-77
2022/11/09 08:14:44;;;;;;;8.30;1.85;;;;;;;;;;5055628;28;20119;-78
2022/11/09 08:17:09;;;;;;;5.80;1.80;;;;;;;;;;5072788;28;20506;-77
2022/11/09 08:19:35;;;;;;;5.10;1.70;;;;;;;;;;5073321;28;20436;-77
2022/11/09 08:22:00;;;;;;;6.20;1.90;;;;;;;;;;5055285;28;20033;-78
2022/11/09 08:24:25;;;;;;;7.07;1.95;;;;;;;;;;5055822;28;20025;-77
2022/11/09 08:26:51;;;;;;;4.07;1.60;;;;;;;;;;5055074;28;20036;-77
2022/11/09 08:29:16;;;;;;;7.50;1.73;;;;;;;;;;5076280;28;20166;-77
2022/11/09 08:31:42;;;;;;;4.90;1.67;;;;;;;;;;5026445;28;20108;-78
2022/11/09 08:34:13;;;;;;;5.22;1.90;;;;;;;;;;5042232;28;20115;-77
2022/11/09 08:36:39;;;;;;;11.27;1.95;;;;;;;;;;5043278;28;20028;-78
2022/11/09 08:39:04;;;;;;;2.60;1.60;;;;;;;;;;5059233;28;20105;-78
2022/11/09 08:41:30;;;;;;;6.22;1.50;;;;;;;;;;5060217;28;20033;-78
2022/11/09 08:43:55;;;;;;;12.38;1.70;;;;;;;;;;5058685;28;20021;-77
2022/11/09 08:46:21;;;;;;;13.70;2.00;;;;;;;;;;5092676;28;20086;-77
2022/11/09 08:48:46;;;;;;;8.93;2.10;;;;;;;;;;5075047;28;20082;-77
2022/11/09 08:51:11;;;;;;;4.93;1.73;;;;;;;;;;5076452;28;20027;-78
2022/11/09 08:53:37;;;;;;;4.40;1.70;;;;;;;;;;5042165;28;20025;-78
2022/11/09 08:56:06;;;;;;;8.93;1.75;;;;;;;;;;5075031;28;20032;-78
2022/11/09 08:58:31;;;;;;;4.25;1.65;;;;;;;;;;5058997;28;20077;-78
2022/11/09 09:00:56;;;;;;;4.15;1.52;;;;;;;;;;5041940;28;20111;-78
2022/11/09 09:03:22;;;;;;;14.30;2.25;;;;;;;;;;5077598;28;20051;-78
2022/11/09 09:05:47;;;;;;;5.70;1.67;;;;;;;;;;5076331;28;20036;-78
2022/11/09 09:08:14;;;;;;;6.28;1.80;;;;;;;;;;5076024;28;20024;-78
2022/11/09 09:10:40;;;;;;;7.28;1.80;;;;;;;;;;5057684;28;20062;-77
2022/11/09 09:13:06;;;;;;;12.63;2.33;;;;;;;;;;5076232;28;20085;-78
2022/11/09 09:15:31;;;;;;;4.97;2.10;;;;;;;;;;5040418;28;20418;-78
2022/11/09 09:18:01;;;;;;;18.02;2.25;;;;;;;;;;5058821;28;20036;-79
2022/11/09 09:20:26;;;;;;;5.90;1.80;;;;;;;;;;5041928;28;20418;-79
2022/11/09 09:22:52;;;;;;;9.45;2.15;;;;;;;;;;5076180;28;20024;-78
2022/11/09 09:25:17;;;;;;;6.80;1.75;;;;;;;;;;5058187;28;20462;-79
2022/11/09 09:27:43;;;;;;;5.85;2.00;;;;;;;;;;5076502;28;20040;-79
2022/11/09 09:30:09;;;;;;;5.55;1.73;;;;;;;;;;5042447;28;20032;-80
2022/11/09 09:32:35;;;;;;;6.85;2.15;;;;;;;;;;5057774;28;20060;-80
2022/11/09 09:35:00;;;;;;;10.05;1.77;;;;;;;;;;5038884;28;20029;-79
2022/11/09 09:37:26;;;;;;;7.32;1.95;;;;;;;;;;5038424;28;20415;-78
2022/11/09 09:39:51;;;;;;;12.68;2.10;;;;;;;;;;5072815;28;20025;-79
2022/11/09 09:42:20;;;;;;;17.52;2.15;;;;;;;;;;5059114;28;20384;-79
2022/11/09 09:44:57;;;;;;;6.15;1.80;;;;;;;;;;5058177;28;20064;-80
2022/11/09 09:47:48;;;;;;;8.85;1.92;;;;;;;;;;5057851;28;20027;-80
2022/11/09 09:50:22;;;;;;;11.90;1.90;;;;;;;;;;5057284;28;20520;-80
2022/11/09 09:53:16;;;;;;;7.60;2.10;;;;;;;;;;5057561;28;20416;-80
2022/11/09 09:55:49;;;;;;;13.63;2.07;;;;;;;;;;5056493;28;20043;-80
2022/11/09 09:58:23;;;;;;;8.20;2.20;;;;;;;;;;5040284;28;20038;-80
2022/11/09 10:00:52;;;;;;;14.25;1.98;;;;;;;;;;5057080;28;20063;-80
2022/11/09 10:03:19;;;;;;;20.00;2.30;;;;;;;;;;5058649;28;20040;-78
2022/11/09 10:06:06;;;;;;;12.50;1.98;;;;;;;;;;5060645;28;20044;-77
2022/11/09 10:08:51;;;;;;;5.43;1.73;;;;;;;;;;5050952;28;20527;-79
2022/11/09 10:11:37;;;;;;;8.35;1.77;;;;;;;;;;5045338;28;20479;-78
2022/11/09 10:14:16;;;;;;;10.85;1.70;;;;;;;;;;5045664;28;20027;-80
2022/11/09 10:17:13;;;;;;;8.63;1.98;;;;;;;;;;5086764;28;20024;-76
2022/11/09 10:19:38;;;;;;;9.88;1.95;;;;;;;;;;5087545;28;20080;-80
2022/11/09 10:22:16;;;;;;;5.53;1.90;;;;;;;;;;5085829;28;20024;-79
2022/11/09 10:24:51;;;;;;;11.52;2.05;;;;;;;;;;5064239;28;20547;-79
2022/11/09 10:27:34;;;;;;;6.25;1.90;;;;;;;;;;5008367;28;20128;-79
2022/11/09 10:30:00;;;;;;;9.52;2.00;;;;;;;;;;5043838;28;20048;-78
2022/11/09 10:32:29;;;;;;;5.30;1.83;;;;;;;;;;5028060;28;20071;-79
2022/11/09 10:35:11;;;;;;;9.98;1.90;;;;;;;;;;5045527;28;20436;-78
2022/11/09 10:37:45;;;;;;;7.80;2.10;;;;;;;;;;5063541;28;20024;-79
2022/11/09 10:40:20;;;;;;;7.45;1.85;;;;;;;;;;5040250;28;20044;-78
2022/11/09 10:43:00;;;;;;;8.88;2.25;;;;;;;;;;5058873;28;20041;-79
2022/11/09 10:45:27;;;;;;;14.55;1.90;;;;;;;;;;5044377;28;20047;-79
2022/11/09 10:47:53;;;;;;;14.38;2.55;;;;;;;;;;5061788;28;20035;-79
2022/11/09 10:50:26;;;;;;;7.80;2.10;;;;;;;;;;5061277;28;20111;-80
2022/11/09 10:52:52;;;;;;;7.10;2.42;;;;;;;;;;5061806;28;20020;-77
2022/11/09 10:55:27;;;;;;;10.32;1.90;;;;;;;;;;5061912;28;20039;-79
2022/11/09 10:57:59;;;;;;;8.93;2.03;;;;;;;;;;5081378;28;20055;-79
2022/11/09 11:00:24;;;;;;;6.78;1.90;;;;;;;;;;5056640;28;20021;-80
2022/11/09 11:02:51;;;;;;;6.55;1.80;;;;;;;;;;5025015;28;20064;-78
2022/11/09 11:05:16;;;;;;;7.90;1.65;;;;;;;;;;5055872;28;20061;-79
2022/11/09 11:07:42;;;;;;;7.35;2.00;;;;;;;;;;5057375;28;20043;-78
2022/11/09 11:10:28;;;;;;;7.07;1.92;;;;;;;;;;5020415;28;20021;-79
2022/11/09 11:12:57;;;;;;;4.07;1.70;;;;;;;;;;5019183;28;20037;-79
2022/11/09 11:15:34;;;;;;;6.13;1.83;;;;;;;;;;5053178;28;20013;-79
2022/11/09 11:18:00;;;;;;;7.82;1.98;;;;;;;;;;5052528;28;20104;-79
2022/11/09 11:20:26;;;;;;;9.77;2.15;;;;;;;;;;5052046;28;20130;-80
2022/11/09 11:23:05;;;;;;;6.13;1.60;;;;;;;;;;5053441;28;20017;-80
2022/11/09 11:25:31;;;;;;;7.60;1.75;;;;;;;;;;5052701;28;20455;-79
2022/11/09 11:28:03;;;;;;;10.98;2.45;;;;;;;;;;5052157;28;20024;-79
2022/11/09 11:30:35;;;;;;;6.73;2.03;;;;;;;;;;5051588;28;20025;-79
2022/11/09 11:33:01;;;;;;;5.45;1.90;;;;;;;;;;5051868;28;20387;-79
2022/11/09 11:35:35;;;;;;;5.03;1.73;;;;;;;;;;5052621;28;20029;-79
2022/11/09 11:38:09;;;;;;;;;;;;;;;;;;5035741;28;20498;-78
2022/11/09 11:41:02;;;;;;;7.25;2.25;;;;;;;;;;5051559;28;19909;-79
2022/11/09 11:43:59;;;;;;;8.25;1.85;;;;;;;;;;5051706;28;20037;-79
2022/11/09 11:46:40;;;;;;;4.05;1.92;;;;;;;;;;5040493;28;20020;-79
2022/11/09 11:49:17;;;;;;;7.38;1.90;;;;;;;;;;5035657;28;20020;-81
2022/11/09 11:52:34;;;;;;;5.40;1.83;;;;;;;;;;5043210;28;20064;-81
2022/11/09 11:55:23;;;;;;;5.65;1.60;;;;;;;;;;5019677;28;20038;-79
2022/11/09 11:58:34;;;;;;;6.18;1.80;;;;;;;;;;5034982;28;20033;-81
2022/11/09 12:01:12;;;;;;;10.50;1.70;;;;;;;;;;5030915;28;20068;-80
2022/11/09 12:04:05;;;;;;;11.63;1.77;;;;;;;;;;5056607;28;20020;-81
2022/11/09 12:06:30;;;;;;;13.88;2.30;;;;;;;;;;5071385;28;20052;-81
2022/11/09 12:09:11;;;;;;;6.80;2.10;;;;;;;;;;5061934;28;20025;-79
2022/11/09 12:12:02;;;;;;;5.28;1.50;;;;;;;;;;5060855;28;20025;-79
2022/11/09 12:14:40;;;;;;;9.40;1.70;;;;;;;;;;5062092;28;20074;-79
2022/11/09 12:17:28;;;;;;;6.03;1.50;;;;;;;;;;5062212;28;20031;-79
2022/11/09 12:20:34;;;;;;;5.10;1.83;;;;;;;;;;5059088;28;20021;-80
2022/11/09 12:23:23;;;;;;;4.97;1.70;;;;;;;;;;5059456;28;20025;-80
2022/11/09 12:26:00;;;;;;;9.07;1.75;;;;;;;;;;5077092;28;20439;-79
2022/11/09 12:28:58;;;;;;;10.00;1.98;;;;;;;;;;5077070;28;20394;-79
2022/11/09 12:31:53;;;;;;;7.43;2.00;;;;;;;;;;5042202;28;20028;-80
2022/11/09 12:34:45;;;;;;;6.32;1.80;;;;;;;;;;5058761;28;20020;-79
2022/11/09 12:37:17;;;;;;;9.93;1.88;;;;;;;;;;5039647;28;20024;-82
2022/11/09 12:39:49;;;;;;;12.85;2.10;;;;;;;;;;5076376;28;20079;-80
2022/11/09 12:42:17;;;;;;;10.73;1.88;;;;;;;;;;5058462;28;20024;-79
2022/11/09 12:45:01;;;;;;;11.60;2.10;;;;;;;;;;5062927;28;20119;-79
2022/11/09 12:47:33;;;;;;;13.40;2.20;;;;;;;;;;5042276;28;20020;-78
2022/11/09 12:49:58;;;;;;;14.57;2.17;;;;;;;;;;5048526;28;20037;-77
2022/11/09 12:52:27;;;;;;;11.85;1.80;;;;;;;;;;5059934;28;20028;-76
2022/11/09 12:54:52;;;;;;;13.80;2.08;;;;;;;;;;5061242;28;20111;-78
2022/11/09 12:57:26;;;;;;;5.95;1.80;;;;;;;;;;5054096;28;20559;-77
2022/11/09 12:59:54;;;;;;;8.57;1.63;;;;;;;;;;5039306;28;20098;-79
2022/11/09 13:02:25;;;;;;;7.65;2.10;;;;;;;;;;5057740;28;20024;-77
2022/11/09 13:05:05;;;;;;;6.63;2.20;;;;;;;;;;5054377;28;20049;-79
2022/11/09 13:07:43;;;;;;;7.78;1.85;;;;;;;;;;5054639;28;20074;-79
2022/11/09 13:10:33;;;;;;;3.97;1.55;;;;;;;;;;5054863;28;20032;-79
2022/11/09 13:13:01;;;;;;;6.32;1.60;;;;;;;;;;5053800;28;20036;-78
2022/11/09 13:15:29;;;;;;;6.72;2.13;;;;;;;;;;5055195;28;20025;-82
2022/11/09 13:17:58;;;;;;;13.27;1.77;;;;;;;;;;5032697;28;20090;-80
2022/11/09 13:20:36;;;;;;;4.88;1.90;;;;;;;;;;5053527;28;20495;-80
2022/11/09 13:23:02;;;;;;;6.18;1.98;;;;;;;;;;5037868;28;20063;-80
2022/11/09 13:25:43;;;;;;;4.88;2.00;;;;;;;;;;5025000;28;20495;-80
2022/11/09 13:28:40;;;;;;;8.45;1.60;;;;;;;;;;5056529;28;20040;-80
2022/11/09 13:31:09;;;;;;;6.80;1.70;;;;;;;;;;5054793;28;20029;-81
2022/11/09 13:33:34;;;;;;;5.68;1.90;;;;;;;;;;5037782;28;20100;-81
2022/11/09 13:36:06;;;;;;;4.88;1.80;;;;;;;;;;5054490;28;20155;-81
2022/11/09 13:38:35;;;;;;;5.75;1.67;;;;;;;;;;5056038;28;20443;-80
2022/11/09 13:41:02;;;;;;;4.78;1.73;;;;;;;;;;5055568;28;20029;-80
2022/11/09 13:43:36;;;;;;;7.72;1.90;;;;;;;;;;5057630;28;20472;-81
2022/11/09 13:46:01;;;;;;;;;;;;;;;;;;5038724;28;20060;-79
2022/11/09 13:48:39;;;;;;;4.97;1.93;;;;;;;;;;5039334;28;19955;-82
2022/11/09 13:51:45;;;;;;;4.80;1.42;;;;;;;;;;5056211;28;20312;-81
2022/11/09 13:54:31;;;;;;;8.15;1.70;;;;;;;;;;5039257;28;20032;-80
2022/11/09 13:56:56;;;;;;;4.40;1.50;;;;;;;;;;5042451;28;20387;-81
2022/11/09 13:59:28;;;;;;;8.75;1.73;;;;;;;;;;5021105;28;20029;-82
2022/11/09 14:01:55;;;;;;;7.00;1.40;;;;;;;;;;5024982;28;20388;-82
2022/11/09 14:04:38;;;;;;;6.05;1.60;;;;;;;;;;5044876;28;20044;-81
2022/11/09 14:07:17;;;;;;;8.15;1.70;;;;;;;;;;5056626;28;20453;-80
2022/11/09 14:09:57;;;;;;;6.00;1.65;;;;;;;;;;5074894;28;20028;-80
2022/11/09 14:14:29;;;;;;;6.95;1.40;;;;;;;;;;5091057;28;20710;-79
2022/11/09 14:17:27;;;;;;;4.35;1.52;;;;;;;;;;5098367;28;20024;-79
2022/11/09 14:20:23;;;;;;;6.03;1.63;;;;;;;;;;5110406;28;20019;-80
2022/11/09 14:22:48;;;;;;;3.08;1.30;;;;;;;;;;5110180;28;20106;-79
2022/11/09 14:25:15;;;;;;;5.35;1.67;;;;;;;;;;5110095;28;20490;-79
2022/11/09 14:27:55;;;;;;;4.13;1.50;;;;;;;;;;5110657;28;20027;-79
2022/11/09 14:30:23;;;;;;;4.15;1.45;;;;;;;;;;5094490;28;20023;-81
2022/11/09 14:32:52;;;;;;;2.45;1.15;;;;;;;;;;5109748;28;20038;-81
2022/11/09 14:35:24;;;;;;;11.50;1.60;;;;;;;;;;5110563;28;20106;-80
2022/11/09 14:37:51;;;;;;;9.73;1.85;;;;;;;;;;5111239;28;20413;-79
2022/11/09 14:40:22;;;;;;;4.65;1.30;;;;;;;;;;5109882;28;20030;-77
2022/11/09 14:42:51;;;;;;;2.28;1.30;;;;;;;;;;5110713;28;20489;-78
2022/11/09 14:45:17;;;;;;;4.95;1.20;;;;;;;;;;5092702;28;20063;-77
2022/11/09 14:47:45;;;;;;;3.95;1.63;;;;;;;;;;5109109;28;20063;-79
2022/11/09 14:50:17;;;;;;;4.53;1.20;;;;;;;;;;5093438;28;20091;-79
2022/11/09 14:52:42;;;;;;;4.82;1.52;;;;;;;;;;5109350;28;20086;-79
2022/11/09 14:55:12;;;;;;;6.05;1.45;;;;;;;;;;5091337;28;20401;-79
2022/11/09 14:57:38;;;;;;;6.57;1.63;;;;;;;;;;5100227;28;20474;-80
2022/11/09 15:00:03;;;;;;;5.53;1.38;;;;;;;;;;5111294;28;20103;-80